Time;durP1;ratioP1;P1;durP2;ratioP2;P2;SDS_P1;SDS_P2;PMS_P1;PMS_P2;Temp;Humidity;BMP_temperature;BMP_pressure;BME280_temperature;BME280_humidity;BME280_pressure;Samples;Min_cycle;Max_cycle;Signal;HPM_P1;HPM_P2
2022/01/13 00:02:28;;;;;;;1.60;0.32;;;23.90;99.90;;;;;;4971445;28;20398;-77
2022/01/13 00:04:55;;;;;;;1.67;0.60;;;23.50;99.90;;;;;;4970573;28;20030;-77
2022/01/13 00:07:22;;;;;;;2.60;0.70;;;23.20;99.90;;;;;;4972270;28;20019;-77
2022/01/13 00:09:50;;;;;;;0.57;0.10;;;22.90;99.90;;;;;;4970437;28;20039;-78
2022/01/13 00:12:19;;;;;;;0.98;0.20;;;22.70;99.90;;;;;;4974177;28;20451;-78
2022/01/13 00:15:24;;;;;;;3.40;0.77;;;22.60;99.90;;;;;;4966720;28;20027;-78
2022/01/13 00:18:04;;;;;;;1.85;0.68;;;22.60;99.90;;;;;;4967697;28;20057;-77
2022/01/13 00:26:08;;;;;;;1.02;0.25;;;22.80;99.90;;;;;;4976276;28;20489;-76
2022/01/13 00:28:36;;;;;;;3.13;0.30;;;22.90;99.90;;;;;;4980529;28;20023;-77
2022/01/13 00:31:06;;;;;;;1.75;0.40;;;23.00;99.90;;;;;;4975051;28;20108;-78
2022/01/13 00:33:33;;;;;;;1.88;0.40;;;23.10;99.90;;;;;;4969651;28;20423;-78
2022/01/13 00:36:03;;;;;;;1.10;0.43;;;23.20;99.90;;;;;;4971902;28;20046;-77
2022/01/13 00:38:33;;;;;;;3.67;0.40;;;23.30;99.90;;;;;;4972192;28;20087;-78
2022/01/13 00:41:01;;;;;;;0.50;0.30;;;23.30;99.90;;;;;;4975544;28;20045;-79
2022/01/13 00:43:28;;;;;;;1.00;0.57;;;23.50;99.90;;;;;;4972616;28;20061;-79
2022/01/13 00:45:56;;;;;;;0.30;0.30;;;23.50;99.90;;;;;;4973390;28;20019;-77
2022/01/13 00:48:23;;;;;;;0.52;0.20;;;23.80;99.90;;;;;;4964425;28;20035;-78
2022/01/13 00:50:50;;;;;;;0.77;0.10;;;23.90;99.90;;;;;;4974413;28;20150;-78
2022/01/13 00:53:18;;;;;;;0.77;0.10;;;24.20;99.90;;;;;;4967914;28;20027;-78
2022/01/13 00:55:57;;;;;;;0.52;0.20;;;24.50;99.90;;;;;;4974688;28;20039;-79
2022/01/13 00:58:30;;;;;;;1.08;0.20;;;25.00;99.90;;;;;;4969928;28;20102;-79
2022/01/13 01:00:58;;;;;;;0.40;0.25;;;25.40;99.90;;;;;;4968015;28;20090;-80
2022/01/13 01:03:26;;;;;;;0.10;0.05;;;25.40;99.90;;;;;;4971820;28;20122;-78
2022/01/13 01:05:54;;;;;;;0.35;0.10;;;25.40;99.90;;;;;;4972207;28;20030;-78
2022/01/13 01:08:23;;;;;;;1.10;0.10;;;25.40;99.90;;;;;;4970841;28;20393;-81
2022/01/13 01:10:53;;;;;;;0.20;0.10;;;25.40;99.90;;;;;;4976922;28;20045;-79
2022/01/13 01:13:27;;;;;;;1.55;0.10;;;25.40;99.90;;;;;;4973946;28;20019;-78
2022/01/13 01:15:56;;;;;;;0.10;0.10;;;25.50;99.90;;;;;;4980510;28;20038;-78
2022/01/13 01:21:19;;;;;;;0.47;0.20;;;25.80;99.90;;;;;;4973455;28;20037;-79
2022/01/13 01:31:35;;;;;;;0.10;0.03;;;26.20;99.90;;;;;;4972793;28;20039;-78
2022/01/13 01:36:31;;;;;;;0.15;0.00;;;26.40;99.90;;;;;;4977550;28;20026;-78
2022/01/13 01:39:00;;;;;;;0.30;0.22;;;26.50;99.90;;;;;;4969277;28;20046;-78
2022/01/13 01:41:28;;;;;;;3.25;0.30;;;26.70;99.90;;;;;;4972605;28;20026;-79
2022/01/13 01:44:01;;;;;;;0.25;0.00;;;26.80;99.90;;;;;;4973960;28;20042;-78
2022/01/13 01:46:33;;;;;;;0.47;0.10;;;26.90;99.90;;;;;;4972315;28;20385;-79
2022/01/13 01:49:04;;;;;;;0.98;0.20;;;27.20;99.90;;;;;;4964680;28;20036;-79
2022/01/13 01:51:32;;;;;;;0.30;0.10;;;27.30;99.90;;;;;;4975701;28;20442;-79
2022/01/13 01:53:59;;;;;;;1.08;0.30;;;27.60;99.90;;;;;;4977432;28;20354;-79
2022/01/13 01:56:26;;;;;;;0.70;0.10;;;27.70;99.90;;;;;;4978071;28;20022;-78
2022/01/13 01:58:55;;;;;;;0.47;0.10;;;27.80;99.90;;;;;;4970754;28;20057;-79
2022/01/13 02:01:23;;;;;;;0.63;0.10;;;28.00;99.90;;;;;;4980284;28;20029;-80
2022/01/13 02:03:50;;;;;;;0.52;0.10;;;28.20;99.90;;;;;;4982344;28;20379;-79
2022/01/13 02:06:19;;;;;;;1.23;0.10;;;28.40;99.90;;;;;;4978812;28;20038;-78
2022/01/13 02:08:46;;;;;;;0.95;0.15;;;28.90;99.90;;;;;;4969888;28;20113;-80
2022/01/13 02:11:16;;;;;;;1.65;0.13;;;29.60;99.90;;;;;;4962217;28;20054;-80
2022/01/13 02:13:50;;;;;;;0.50;0.00;;;30.00;99.90;;;;;;4967917;28;20473;-80
2022/01/13 02:16:44;;;;;;;2.00;0.10;;;30.10;99.90;;;;;;4971292;28;20027;-78
2022/01/13 02:19:06;;;;;;;0.10;0.10;;;29.90;99.90;;;;;;4970879;28;20285;-78
2022/01/13 02:21:34;;;;;;;1.35;0.60;;;29.70;99.90;;;;;;4969583;28;20027;-77
2022/01/13 02:24:04;;;;;;;1.10;0.10;;;29.40;99.90;;;;;;4968969;28;20054;-78
2022/01/13 02:26:32;;;;;;;0.30;0.08;;;29.00;99.90;;;;;;4971757;28;20057;-78
2022/01/13 02:28:59;;;;;;;0.28;0.13;;;28.60;99.90;;;;;;4970255;28;20038;-80
2022/01/13 02:31:29;;;;;;;0.20;0.00;;;28.40;99.90;;;;;;4978257;28;20082;-78
2022/01/13 02:33:56;;;;;;;0.52;0.08;;;28.30;99.90;;;;;;4964524;28;20027;-79
2022/01/13 02:36:25;;;;;;;0.25;0.20;;;28.30;99.90;;;;;;4967354;28;20486;-78
2022/01/13 02:38:54;;;;;;;0.88;0.10;;;28.20;99.90;;;;;;4970102;28;20367;-78
2022/01/13 02:41:23;;;;;;;0.90;0.17;;;28.10;99.90;;;;;;4970601;28;20445;-78
2022/01/13 02:43:53;;;;;;;0.30;0.20;;;28.20;99.90;;;;;;4969044;28;20026;-78
2022/01/13 02:46:30;;;;;;;0.10;0.10;;;28.10;99.90;;;;;;4977348;28;20402;-77
2022/01/13 02:48:59;;;;;;;0.30;0.13;;;28.20;99.90;;;;;;4969423;28;20023;-78
2022/01/13 02:51:27;;;;;;;0.60;0.15;;;28.40;99.90;;;;;;4968795;28;20042;-77
2022/01/13 02:53:55;;;;;;;0.65;0.10;;;28.30;99.90;;;;;;4971657;28;20437;-78
2022/01/13 02:56:22;;;;;;;0.43;0.10;;;28.00;99.90;;;;;;4969306;28;20049;-78
2022/01/13 02:58:49;;;;;;;1.10;0.20;;;27.90;99.90;;;;;;4967262;28;20027;-78
2022/01/13 03:01:17;;;;;;;2.30;0.15;;;28.00;99.90;;;;;;4973190;28;20073;-78
2022/01/13 03:03:45;;;;;;;2.05;0.50;;;28.40;99.90;;;;;;4979824;28;20482;-78
2022/01/13 03:06:16;;;;;;;2.83;0.82;;;28.70;99.90;;;;;;4974420;28;20505;-78
2022/01/13 03:08:46;;;;;;;1.38;0.22;;;28.80;99.90;;;;;;4969833;28;20027;-79
2022/01/13 03:11:14;;;;;;;2.92;0.20;;;29.20;99.90;;;;;;4985517;28;20046;-79
2022/01/13 03:13:42;;;;;;;2.72;0.20;;;29.70;99.90;;;;;;4985353;28;20042;-78
2022/01/13 03:16:11;;;;;;;1.10;0.20;;;29.80;99.90;;;;;;4970529;28;20057;-77
2022/01/13 03:18:39;;;;;;;0.40;0.10;;;30.10;99.90;;;;;;4968345;28;20023;-77
2022/01/13 03:21:08;;;;;;;0.80;0.20;;;30.40;99.90;;;;;;4962359;28;20483;-77
2022/01/13 03:23:37;;;;;;;1.17;0.20;;;30.40;99.90;;;;;;4966213;28;20039;-77
2022/01/13 03:26:05;;;;;;;1.38;0.20;;;30.50;99.90;;;;;;4979344;28;20042;-78
2022/01/13 03:28:39;;;;;;;1.27;0.10;;;31.00;99.90;;;;;;4978115;28;20054;-77
2022/01/13 03:31:08;;;;;;;0.68;0.30;;;31.50;99.90;;;;;;4976992;28;20036;-77
2022/01/13 03:33:36;;;;;;;0.50;0.20;;;31.30;99.90;;;;;;4973026;28;20054;-77
2022/01/13 03:36:03;;;;;;;0.40;0.10;;;31.20;99.90;;;;;;4971528;28;20114;-77
2022/01/13 03:38:31;;;;;;;0.20;0.10;;;30.80;99.90;;;;;;4972599;28;20034;-78
2022/01/13 03:40:59;;;;;;;1.38;0.20;;;30.30;99.90;;;;;;4984572;28;20030;-79
2022/01/13 03:43:26;;;;;;;0.10;0.10;;;29.90;99.90;;;;;;4980001;28;20023;-77
2022/01/13 03:45:53;;;;;;;2.05;0.38;;;29.30;99.90;;;;;;4969347;28;20031;-77
2022/01/13 03:48:21;;;;;;;0.50;0.22;;;28.90;99.90;;;;;;4980523;28;20355;-77
2022/01/13 03:50:48;;;;;;;2.17;0.32;;;28.50;99.90;;;;;;4976881;28;20074;-76
2022/01/13 03:53:30;;;;;;;1.25;0.22;;;28.10;99.90;;;;;;4968313;28;20023;-76
2022/01/13 03:56:34;;;;;;;2.15;0.35;;;27.50;99.90;;;;;;4977284;28;20394;-78
2022/01/13 03:59:34;;;;;;;0.50;0.20;;;27.20;99.90;;;;;;4973018;28;20034;-78
2022/01/13 04:02:04;;;;;;;0.65;0.20;;;26.90;99.90;;;;;;4972638;28;20364;-78
2022/01/13 04:04:35;;;;;;;0.73;0.10;;;26.50;99.90;;;;;;4973699;28;20046;-78
2022/01/13 04:07:14;;;;;;;2.17;0.20;;;26.10;99.90;;;;;;4977934;28;20050;-79
2022/01/13 04:09:41;;;;;;;0.77;0.32;;;25.80;99.90;;;;;;4978112;28;20031;-79
2022/01/13 04:12:12;;;;;;;0.75;0.20;;;25.70;99.90;;;;;;4975040;28;20030;-79
2022/01/13 04:14:47;;;;;;;0.75;0.20;;;25.60;99.90;;;;;;4950175;28;20022;-76
2022/01/13 04:17:19;;;;;;;1.88;0.22;;;25.50;99.90;;;;;;4981235;28;20033;-78
2022/01/13 04:19:47;;;;;;;1.17;0.20;;;25.30;99.90;;;;;;4971914;28;20066;-79
2022/01/13 04:22:17;;;;;;;0.95;0.57;;;25.30;99.90;;;;;;4971656;28;20089;-78
2022/01/13 04:24:47;;;;;;;2.75;0.25;;;25.30;99.90;;;;;;4969174;28;20112;-78
2022/01/13 04:27:29;;;;;;;2.00;0.32;;;25.20;99.90;;;;;;4985299;28;20026;-80
2022/01/13 04:32:39;;;;;;;2.08;0.17;;;25.30;99.90;;;;;;4981469;28;20053;-82
2022/01/13 04:35:07;;;;;;;0.20;0.20;;;25.30;99.90;;;;;;4976206;28;20023;-83
2022/01/13 04:37:35;;;;;;;0.15;0.10;;;25.50;99.90;;;;;;4987617;28;20041;-77
2022/01/13 04:40:02;;;;;;;1.75;0.40;;;25.50;99.90;;;;;;4973531;28;20431;-79
2022/01/13 04:42:35;;;;;;;0.73;0.20;;;25.40;99.90;;;;;;4972112;28;20053;-77
2022/01/13 04:45:03;;;;;;;0.60;0.20;;;25.50;99.90;;;;;;4966474;28;20090;-78
2022/01/13 04:47:31;;;;;;;0.10;0.10;;;25.70;99.90;;;;;;4982363;28;20115;-78
2022/01/13 04:49:58;;;;;;;0.88;0.20;;;25.70;99.90;;;;;;4969415;28;20125;-80
2022/01/13 04:52:26;;;;;;;0.55;0.20;;;25.70;99.90;;;;;;4978818;28;20080;-78
2022/01/13 04:54:53;;;;;;;0.93;0.28;;;25.70;99.90;;;;;;4974348;28;21193;-77
2022/01/13 04:57:20;;;;;;;2.63;0.30;;;25.70;99.90;;;;;;4971045;28;20112;-78
2022/01/13 04:59:51;;;;;;;0.25;0.17;;;25.60;99.90;;;;;;4981769;28;20025;-78
2022/01/13 05:02:18;;;;;;;0.35;0.15;;;25.40;99.90;;;;;;4972581;28;20454;-80
2022/01/13 05:04:46;;;;;;;0.55;0.22;;;25.40;99.90;;;;;;4974368;28;20109;-80
2022/01/13 05:07:13;;;;;;;0.73;0.30;;;25.50;99.90;;;;;;4971096;28;20035;-80
2022/01/13 05:09:40;;;;;;;0.30;0.10;;;25.50;99.90;;;;;;4978483;28;20039;-80
2022/01/13 05:12:08;;;;;;;0.68;0.30;;;25.50;99.90;;;;;;4978317;28;20594;-79
2022/01/13 05:14:36;;;;;;;0.60;0.20;;;25.50;99.90;;;;;;4975746;28;20034;-80
2022/01/13 05:17:12;;;;;;;0.93;0.30;;;25.50;99.90;;;;;;4971768;28;20073;-79
2022/01/13 05:19:57;;;;;;;2.80;0.70;;;25.60;99.90;;;;;;4967443;28;20043;-79
2022/01/13 05:22:26;;;;;;;1.05;0.40;;;25.80;99.90;;;;;;4975636;28;20484;-80
2022/01/13 05:24:54;;;;;;;2.25;0.20;;;26.00;99.90;;;;;;4968545;28;20074;-80
2022/01/13 05:27:23;;;;;;;2.00;0.22;;;26.00;99.90;;;;;;4973578;28;20031;-80
2022/01/13 05:29:51;;;;;;;1.15;0.30;;;26.10;99.90;;;;;;4966795;28;20406;-79
2022/01/13 05:32:20;;;;;;;0.82;0.15;;;26.20;99.90;;;;;;4983899;28;20110;-80
2022/01/13 05:34:47;;;;;;;0.55;0.20;;;26.20;99.90;;;;;;4966956;28;20027;-79
2022/01/13 05:37:14;;;;;;;1.40;0.10;;;26.30;99.90;;;;;;4964754;28;20488;-79
2022/01/13 05:39:42;;;;;;;1.67;0.30;;;26.30;99.90;;;;;;4966446;28;20049;-79
2022/01/13 05:42:09;;;;;;;1.45;0.22;;;26.20;99.90;;;;;;4979746;28;20050;-80
2022/01/13 05:44:39;;;;;;;0.93;0.25;;;26.30;99.90;;;;;;4970370;28;20480;-80
2022/01/13 05:47:11;;;;;;;0.35;0.30;;;26.30;99.90;;;;;;4991261;28;20367;-77
2022/01/13 05:49:41;;;;;;;0.85;0.13;;;26.40;99.90;;;;;;4974741;28;20039;-78
2022/01/13 05:52:13;;;;;;;1.00;0.22;;;26.40;99.90;;;;;;4973189;28;20106;-78
2022/01/13 05:54:41;;;;;;;2.67;0.30;;;26.40;99.90;;;;;;4970299;28;20065;-81
2022/01/13 05:57:08;;;;;;;1.85;0.38;;;26.30;99.90;;;;;;4983179;28;20037;-80
2022/01/13 05:59:36;;;;;;;1.30;0.32;;;26.20;99.90;;;;;;4976462;28;20050;-79
2022/01/13 06:02:06;;;;;;;1.20;0.30;;;26.10;99.90;;;;;;4985307;28;20034;-78
2022/01/13 06:04:33;;;;;;;1.23;0.57;;;26.20;99.90;;;;;;4968643;28;20023;-80
2022/01/13 06:07:01;;;;;;;4.13;0.50;;;26.20;99.90;;;;;;4970279;28;20027;-80
2022/01/13 06:09:28;;;;;;;2.72;0.40;;;26.20;99.90;;;;;;4970480;28;20550;-79
2022/01/13 06:11:59;;;;;;;0.63;0.20;;;26.30;99.90;;;;;;4970510;28;20703;-79
2022/01/13 06:14:26;;;;;;;1.35;0.30;;;26.40;99.90;;;;;;4970167;28;20449;-80
2022/01/13 06:16:54;;;;;;;0.40;0.30;;;26.50;99.90;;;;;;4973206;28;20104;-80
2022/01/13 06:19:21;;;;;;;2.40;0.30;;;26.40;99.90;;;;;;4967661;28;20033;-81
2022/01/13 06:21:49;;;;;;;4.70;0.85;;;26.30;99.90;;;;;;4969717;28;20027;-81
2022/01/13 06:24:17;;;;;;;1.02;0.20;;;26.20;99.90;;;;;;4966649;28;20181;-80
2022/01/13 06:26:44;;;;;;;2.45;0.40;;;26.20;99.90;;;;;;4976085;28;20049;-80
2022/01/13 06:29:12;;;;;;;2.88;0.70;;;26.30;99.90;;;;;;4969692;28;20708;-79
2022/01/13 06:31:39;;;;;;;1.60;0.40;;;26.20;99.90;;;;;;4965621;28;20382;-80
2022/01/13 06:34:07;;;;;;;1.83;0.88;;;26.20;99.90;;;;;;4969343;28;20022;-78
2022/01/13 06:36:34;;;;;;;2.10;0.80;;;26.20;99.90;;;;;;4972563;28;20422;-78
2022/01/13 06:39:02;;;;;;;2.17;0.95;;;26.30;99.90;;;;;;4967077;28;20031;-79
2022/01/13 06:41:29;;;;;;;1.33;0.20;;;26.40;99.90;;;;;;4973534;28;20034;-80
2022/01/13 06:43:57;;;;;;;0.65;0.20;;;26.50;99.90;;;;;;4968522;28;20489;-80
2022/01/13 06:46:24;;;;;;;1.95;0.60;;;26.70;99.90;;;;;;4974416;28;20027;-81
2022/01/13 06:48:51;;;;;;;2.75;0.30;;;26.80;99.90;;;;;;4969031;28;20431;-82
2022/01/13 06:51:19;;;;;;;0.85;0.20;;;26.90;99.90;;;;;;4972406;28;20103;-82
2022/01/13 06:53:46;;;;;;;2.50;0.45;;;27.10;99.90;;;;;;4964802;28;20117;-81
2022/01/13 06:56:13;;;;;;;6.10;0.50;;;27.40;99.90;;;;;;4972378;28;20046;-79
2022/01/13 06:58:44;;;;;;;2.83;0.30;;;27.50;99.90;;;;;;4969196;28;20042;-82
2022/01/13 07:01:12;;;;;;;1.65;0.20;;;27.60;99.90;;;;;;4971899;28;20034;-78
2022/01/13 07:03:39;;;;;;;3.35;0.20;;;27.50;99.90;;;;;;4970298;28;20153;-80
2022/01/13 07:06:06;;;;;;;1.67;0.30;;;27.40;99.90;;;;;;4977338;28;20465;-79
2022/01/13 07:08:34;;;;;;;1.80;0.28;;;27.20;99.90;;;;;;4970816;28;20046;-79
2022/01/13 07:11:03;;;;;;;0.57;0.20;;;26.90;99.90;;;;;;4974002;28;20039;-79
2022/01/13 07:13:32;;;;;;;1.40;0.40;;;26.70;99.90;;;;;;4969375;28;20058;-78
2022/01/13 07:16:01;;;;;;;1.08;0.28;;;26.50;99.90;;;;;;4970553;28;20035;-79
2022/01/13 07:18:29;;;;;;;1.33;0.30;;;26.40;99.90;;;;;;4970403;28;20023;-80
2022/01/13 07:20:57;;;;;;;1.92;0.30;;;26.30;99.90;;;;;;4978074;28;20481;-79
2022/01/13 07:23:24;;;;;;;2.20;0.47;;;26.20;99.90;;;;;;4970366;28;20050;-81
2022/01/13 07:25:52;;;;;;;1.27;0.10;;;26.30;99.90;;;;;;4972203;28;20528;-79
2022/01/13 07:28:19;;;;;;;1.17;0.15;;;26.40;99.90;;;;;;4968182;28;20109;-79
2022/01/13 07:30:46;;;;;;;4.75;0.55;;;26.40;99.90;;;;;;4974005;28;20038;-81
2022/01/13 07:33:14;;;;;;;1.85;0.30;;;26.30;99.90;;;;;;4976839;28;20030;-80
2022/01/13 07:35:42;;;;;;;1.95;0.25;;;26.30;99.90;;;;;;4971840;28;20027;-80
2022/01/13 07:38:10;;;;;;;0.82;0.22;;;26.30;99.90;;;;;;4972807;28;20143;-79
2022/01/13 07:40:43;;;;;;;1.98;0.20;;;26.20;99.90;;;;;;4975146;28;20059;-81
2022/01/13 07:43:11;;;;;;;5.47;0.40;;;26.20;99.90;;;;;;4972151;28;20029;-80
2022/01/13 07:45:38;;;;;;;3.45;0.30;;;26.10;99.90;;;;;;4973233;28;20054;-81
2022/01/13 07:48:06;;;;;;;1.50;0.25;;;26.00;99.90;;;;;;4971352;28;20443;-80
2022/01/13 07:50:33;;;;;;;1.83;0.15;;;25.80;99.90;;;;;;4985607;28;20456;-81
2022/01/13 07:53:01;;;;;;;3.03;0.73;;;25.70;99.90;;;;;;4973204;28;20030;-81
2022/01/13 07:55:28;;;;;;;2.33;0.30;;;25.50;99.90;;;;;;4972243;28;20121;-81
2022/01/13 07:57:55;;;;;;;2.25;0.40;;;25.50;99.90;;;;;;4965356;28;20106;-81
2022/01/13 08:00:23;;;;;;;0.98;0.20;;;25.40;99.90;;;;;;4974794;28;20062;-82
2022/01/13 08:02:50;;;;;;;0.82;0.20;;;25.40;99.90;;;;;;4976275;28;20035;-78
2022/01/13 08:05:17;;;;;;;3.60;0.40;;;25.40;99.90;;;;;;4971165;28;20019;-78
2022/01/13 08:07:45;;;;;;;2.65;0.55;;;25.30;99.90;;;;;;4967804;28;20069;-81
2022/01/13 08:10:12;;;;;;;1.88;0.32;;;25.30;99.90;;;;;;4973455;28;20042;-79
2022/01/13 08:12:40;;;;;;;1.55;0.30;;;25.30;99.90;;;;;;4970376;28;20038;-79
2022/01/13 08:15:12;;;;;;;3.78;0.70;;;25.30;99.90;;;;;;4966979;28;20023;-81
2022/01/13 08:20:30;;;;;;;1.42;0.35;;;25.20;99.90;;;;;;4980960;28;20050;-80
2022/01/13 08:22:58;;;;;;;2.58;0.70;;;25.20;99.90;;;;;;4976076;28;20051;-80
2022/01/13 08:25:27;;;;;;;0.57;0.15;;;25.20;99.90;;;;;;4975963;28;20054;-80
2022/01/13 08:27:55;;;;;;;2.20;0.55;;;25.20;99.90;;;;;;4972741;28;20974;-80
2022/01/13 08:30:25;;;;;;;4.20;0.68;;;25.10;99.90;;;;;;4970709;28;20072;-80
2022/01/13 08:32:53;;;;;;;3.65;1.15;;;25.00;99.90;;;;;;4977336;28;20030;-79
2022/01/13 08:35:21;;;;;;;1.40;0.30;;;25.00;99.90;;;;;;4976337;28;20034;-79
2022/01/13 08:37:48;;;;;;;3.47;0.30;;;25.00;99.90;;;;;;4986420;28;20027;-79
2022/01/13 08:40:16;;;;;;;3.88;0.93;;;24.90;99.90;;;;;;4974546;28;20022;-79
2022/01/13 08:42:44;;;;;;;1.80;0.30;;;24.90;99.90;;;;;;4977429;28;20036;-80
2022/01/13 08:45:13;;;;;;;2.65;0.70;;;24.70;99.90;;;;;;4970845;28;20050;-81
2022/01/13 08:47:40;;;;;;;1.88;0.22;;;24.70;99.90;;;;;;4976048;28;20050;-81
2022/01/13 08:50:09;;;;;;;4.05;0.57;;;24.60;99.90;;;;;;4967525;28;20149;-80
2022/01/13 08:52:41;;;;;;;2.55;0.50;;;24.60;99.90;;;;;;4973118;28;20026;-80
2022/01/13 08:55:09;;;;;;;3.55;0.30;;;24.50;99.90;;;;;;4970828;28;20208;-79
2022/01/13 08:57:37;;;;;;;4.75;1.80;;;24.50;99.90;;;;;;4966412;28;20023;-78
2022/01/13 09:00:06;;;;;;;1.13;0.20;;;24.60;99.90;;;;;;4981623;28;20018;-79
2022/01/13 09:02:34;;;;;;;3.00;0.50;;;24.60;99.90;;;;;;4969980;28;20023;-79
2022/01/13 09:05:03;;;;;;;0.65;0.32;;;24.50;99.90;;;;;;4978549;28;20074;-79
2022/01/13 09:07:32;;;;;;;2.63;0.93;;;24.60;99.90;;;;;;4987773;28;20030;-78
2022/01/13 09:09:59;;;;;;;3.70;0.60;;;24.50;99.90;;;;;;4978880;28;20034;-81
2022/01/13 09:12:27;;;;;;;1.63;0.20;;;24.50;99.90;;;;;;4973105;28;20034;-79
2022/01/13 09:14:59;;;;;;;1.63;0.47;;;24.50;99.90;;;;;;4969578;28;20109;-78
2022/01/13 09:17:27;;;;;;;2.35;0.32;;;24.40;99.90;;;;;;4971615;28;20394;-79
2022/01/13 09:19:54;;;;;;;1.33;0.55;;;24.40;99.90;;;;;;4971544;28;20023;-79
2022/01/13 09:22:23;;;;;;;1.55;0.38;;;24.40;99.90;;;;;;4973942;28;20034;-79
2022/01/13 09:24:50;;;;;;;3.55;0.65;;;24.40;99.90;;;;;;4973553;28;20062;-82
2022/01/13 09:27:18;;;;;;;4.40;0.70;;;24.40;99.90;;;;;;4969603;28;20650;-80
2022/01/13 09:29:45;;;;;;;2.00;0.50;;;24.40;99.90;;;;;;4969046;28;20023;-82
2022/01/13 09:32:12;;;;;;;5.72;0.68;;;24.40;99.90;;;;;;4975325;28;20489;-78
2022/01/13 09:34:42;;;;;;;3.53;1.02;;;24.40;99.90;;;;;;4967610;28;20367;-80
2022/01/13 09:37:11;;;;;;;1.75;0.55;;;24.30;99.90;;;;;;4977302;28;20162;-79
2022/01/13 09:39:38;;;;;;;4.10;0.50;;;24.40;99.90;;;;;;4974119;28;20053;-80
2022/01/13 09:42:08;;;;;;;2.83;0.45;;;24.30;99.90;;;;;;4966602;28;20074;-79
2022/01/13 09:44:36;;;;;;;2.88;0.30;;;24.30;99.90;;;;;;4972178;28;20122;-79
2022/01/13 09:47:04;;;;;;;3.00;0.30;;;24.30;99.90;;;;;;4972291;28;20031;-80
2022/01/13 09:49:32;;;;;;;6.63;1.33;;;24.20;99.90;;;;;;4967078;28;20038;-79
2022/01/13 09:52:00;;;;;;;9.50;0.73;;;24.20;99.90;;;;;;4985398;28;20038;-80
2022/01/13 09:54:27;;;;;;;3.40;0.43;;;24.10;99.90;;;;;;4967132;28;20027;-79
2022/01/13 09:56:55;;;;;;;3.13;1.10;;;24.10;99.90;;;;;;4986817;28;20038;-79
2022/01/13 09:59:22;;;;;;;1.65;0.50;;;24.10;99.90;;;;;;4964239;28;20205;-80
2022/01/13 10:01:49;;;;;;;1.35;0.35;;;24.10;99.90;;;;;;4971355;28;20041;-79
2022/01/13 10:04:18;;;;;;;2.80;0.40;;;24.10;99.90;;;;;;4970520;28;20027;-80
2022/01/13 10:06:47;;;;;;;2.90;0.47;;;24.10;99.90;;;;;;4979439;28;20038;-80
2022/01/13 10:09:15;;;;;;;1.75;0.25;;;24.10;99.90;;;;;;4966384;28;20358;-80
2022/01/13 10:11:53;;;;;;;0.68;0.38;;;24.10;99.90;;;;;;4981640;28;20553;-80
2022/01/13 10:17:07;;;;;;;2.17;1.05;;;24.10;99.90;;;;;;4971017;28;20114;-80
2022/01/13 10:19:42;;;;;;;2.63;0.80;;;24.10;99.90;;;;;;4973123;28;20033;-79
2022/01/13 10:22:14;;;;;;;;;;;24.10;99.90;;;;;;4967371;28;20034;-79
2022/01/13 10:24:45;;;;;;;4.88;0.47;;;24.10;99.90;;;;;;4970806;28;19926;-80
2022/01/13 10:27:19;;;;;;;4.38;0.50;;;24.10;99.90;;;;;;4969945;28;20030;-81
2022/01/13 10:29:51;;;;;;;2.45;0.45;;;24.10;99.90;;;;;;4968108;28;20035;-83
2022/01/13 10:32:20;;;;;;;1.70;0.40;;;24.10;99.90;;;;;;4975051;28;20046;-79
2022/01/13 10:34:51;;;;;;;3.97;0.68;;;24.00;99.90;;;;;;4970645;28;20042;-81
2022/01/13 10:37:33;;;;;;;3.08;1.05;;;24.10;99.90;;;;;;4971718;28;20031;-82
2022/01/13 10:40:04;;;;;;;4.60;0.47;;;24.10;99.90;;;;;;4967349;28;20050;-79
2022/01/13 10:45:10;;;;;;;3.10;0.85;;;24.10;99.90;;;;;;4962671;28;20039;-80
2022/01/13 10:47:42;;;;;;;1.63;0.52;;;24.10;99.90;;;;;;4967548;28;20045;-81
2022/01/13 10:50:12;;;;;;;1.75;0.85;;;24.10;99.90;;;;;;4968280;28;20038;-79
2022/01/13 10:52:40;;;;;;;3.58;0.35;;;24.10;99.90;;;;;;4979640;28;20076;-79
2022/01/13 10:55:14;;;;;;;2.13;0.40;;;24.10;99.90;;;;;;4973017;28;20075;-80
2022/01/13 10:57:43;;;;;;;2.30;0.38;;;24.10;99.90;;;;;;4961977;28;20391;-80
2022/01/13 11:00:23;;;;;;;2.30;0.47;;;24.10;99.90;;;;;;4966271;28;20146;-81
2022/01/13 11:03:12;;;;;;;1.30;0.45;;;24.10;99.90;;;;;;4971684;28;20062;-79
2022/01/13 11:05:54;;;;;;;6.25;1.13;;;24.10;99.90;;;;;;4972828;28;20034;-79
2022/01/13 11:08:32;;;;;;;3.45;0.60;;;24.10;99.90;;;;;;4968045;28;20022;-79
2022/01/13 11:11:03;;;;;;;3.90;0.85;;;24.10;99.90;;;;;;4969936;28;20069;-81
2022/01/13 11:13:36;;;;;;;5.00;0.60;;;24.10;99.90;;;;;;4967744;28;20034;-83
2022/01/13 11:16:04;;;;;;;2.30;0.63;;;24.10;99.90;;;;;;4968403;28;20045;-84
2022/01/13 11:18:33;;;;;;;3.63;0.70;;;24.00;99.90;;;;;;4965003;28;20031;-82
2022/01/13 11:21:02;;;;;;;4.60;1.65;;;24.00;99.90;;;;;;4971352;28;20340;-83
2022/01/13 11:23:30;;;;;;;7.28;0.98;;;24.00;99.90;;;;;;4964874;28;20113;-82
2022/01/13 11:25:58;;;;;;;4.90;0.50;;;24.00;99.90;;;;;;4967937;28;20432;-81
2022/01/13 11:28:27;;;;;;;2.88;0.65;;;24.10;99.90;;;;;;4968938;28;20194;-81
2022/01/13 11:30:55;;;;;;;2.20;0.30;;;24.10;99.90;;;;;;4968518;28;20165;-83
2022/01/13 11:33:23;;;;;;;3.50;1.08;;;24.00;99.90;;;;;;4965566;28;20019;-80
2022/01/13 11:35:56;;;;;;;5.22;0.80;;;24.10;99.90;;;;;;4968361;28;20030;-80
2022/01/13 11:38:27;;;;;;;5.00;0.80;;;24.00;99.90;;;;;;4970911;28;20542;-82
2022/01/13 11:41:14;;;;;;;2.63;0.40;;;24.00;99.90;;;;;;4971867;28;20489;-82
2022/01/13 11:43:42;;;;;;;4.15;0.73;;;24.00;99.90;;;;;;4963523;28;20117;-81
2022/01/13 11:46:24;;;;;;;8.82;0.77;;;24.00;99.90;;;;;;4978583;28;20030;-82
2022/01/13 11:48:58;;;;;;;3.28;0.93;;;23.90;99.90;;;;;;4979812;28;20031;-82
2022/01/13 11:51:28;;;;;;;1.70;0.65;;;23.80;99.90;;;;;;4974039;28;20042;-73
2022/01/13 11:54:04;;;;;;;3.33;0.70;;;23.80;99.90;;;;;;4966623;28;20114;-82
2022/01/13 11:56:32;;;;;;;8.13;0.95;;;23.60;99.90;;;;;;4971650;28;20076;-82
2022/01/13 11:59:00;;;;;;;8.13;0.80;;;23.60;99.90;;;;;;4979809;28;20023;-83
2022/01/13 12:01:34;;;;;;;3.45;1.30;;;23.50;99.90;;;;;;4971604;28;20030;-83
2022/01/13 12:04:04;;;;;;;1.23;0.50;;;23.40;99.90;;;;;;4970544;28;20105;-86
2022/01/13 12:06:43;;;;;;;9.05;1.00;;;23.30;99.90;;;;;;4951621;29;20037;-82
2022/01/13 12:09:33;;;;;;;2.13;0.68;;;23.30;99.90;;;;;;4960720;28;20027;-82
2022/01/13 12:12:01;;;;;;;5.18;1.00;;;23.30;99.90;;;;;;4969171;28;20039;-80
2022/01/13 12:14:31;;;;;;;4.10;1.17;;;23.20;99.90;;;;;;4959674;28;20107;-84
2022/01/13 12:17:07;;;;;;;1.60;0.50;;;23.20;99.90;;;;;;4970424;28;20039;-86
2022/01/13 12:19:43;;;;;;;1.90;0.65;;;23.20;99.90;;;;;;4971255;28;20622;-91
2022/01/13 12:22:42;;;;;;;2.53;0.52;;;23.20;99.90;;;;;;4974847;28;20054;-85
2022/01/13 12:25:14;;;;;;;2.42;0.50;;;23.10;99.90;;;;;;4969138;28;20070;-86
2022/01/13 12:27:41;;;;;;;3.00;0.68;;;23.10;99.90;;;;;;4972968;28;20426;-81
2022/01/13 12:30:11;;;;;;;2.13;0.52;;;23.10;99.90;;;;;;4969763;28;20504;-84
2022/01/13 12:32:44;;;;;;;4.22;0.55;;;23.10;99.90;;;;;;4970334;28;20027;-83
2022/01/13 12:35:45;;;;;;;6.88;1.20;;;23.10;99.90;;;;;;4973200;28;20912;-86
2022/01/13 12:38:21;;;;;;;3.70;0.57;;;23.00;99.90;;;;;;4972345;28;20529;-83
2022/01/13 12:41:13;;;;;;;3.08;0.47;;;23.00;99.90;;;;;;4974108;28;20062;-82
2022/01/13 12:46:18;;;;;;;6.85;0.50;;;22.90;99.90;;;;;;4972914;28;20521;-83
2022/01/13 12:48:49;;;;;;;5.72;0.60;;;22.90;99.90;;;;;;4970905;28;20129;-81
2022/01/13 12:51:18;;;;;;;3.67;0.60;;;22.90;99.90;;;;;;4964131;28;20439;-81
2022/01/13 12:53:47;;;;;;;4.40;0.82;;;22.80;99.90;;;;;;4965400;28;20105;-80
2022/01/13 12:56:24;;;;;;;2.30;0.85;;;22.80;99.90;;;;;;4967182;28;20045;-85
2022/01/13 12:58:58;;;;;;;3.13;0.40;;;22.80;99.90;;;;;;4967747;28;20473;-77
2022/01/13 13:01:28;;;;;;;4.28;1.23;;;22.70;99.90;;;;;;4971753;28;20047;-85
2022/01/13 13:04:11;;;;;;;4.88;0.32;;;22.60;99.90;;;;;;4972211;28;20089;-78
2022/01/13 13:06:43;;;;;;;4.00;0.50;;;22.60;99.90;;;;;;4972176;28;20039;-78
2022/01/13 13:09:12;;;;;;;3.92;0.50;;;22.50;99.90;;;;;;4971488;28;20090;-76
2022/01/13 13:11:45;;;;;;;3.45;0.35;;;22.50;99.90;;;;;;4986527;28;20038;-79
2022/01/13 13:14:21;;;;;;;1.67;0.52;;;22.40;99.90;;;;;;4973523;28;20389;-79
2022/01/13 13:16:53;;;;;;;4.30;1.20;;;22.40;99.90;;;;;;4989588;28;20030;-79
2022/01/13 13:19:20;;;;;;;3.35;0.60;;;22.30;99.90;;;;;;4964036;28;20150;-79
2022/01/13 13:21:52;;;;;;;2.50;0.43;;;22.30;99.90;;;;;;4965933;28;20031;-78
2022/01/13 13:24:22;;;;;;;1.15;0.43;;;22.20;99.90;;;;;;4970520;28;20058;-80
2022/01/13 13:26:51;;;;;;;1.38;0.40;;;22.20;99.90;;;;;;4966963;28;20035;-81
2022/01/13 13:29:26;;;;;;;3.40;0.43;;;22.20;99.90;;;;;;4968273;28;20033;-81
2022/01/13 13:31:54;;;;;;;;;;;22.10;99.90;;;;;;4980011;28;20043;-80
2022/01/13 13:34:21;;;;;;;5.45;0.70;;;22.20;99.90;;;;;;4968091;28;19997;-82
2022/01/13 13:36:50;;;;;;;2.97;1.27;;;22.10;99.90;;;;;;4973495;28;20443;-81